Página principal
METAR-TAF:

METAR-TAF

Aeroportos :

Sarh, Chade

latitude: 09-09N, longitude: 018-23E, altura: 365 m

Observação actual do tempo

O boletim foi feito há 4 horas e 23 minutos, às 16:00 UTC
Vento 3 kt de nor-nordeste
Temperatura 41°C
Humidade 16%
Pressão 1007 hPa
Visibilidade: 8000 m

METAR: FTTA 271600Z 02003KT 8000 NSC 41/10 Q1007

Hora: 21:23 (20:23 UTC)


TAF: em falta

Observações e previsões do tempo de mais de 4000 aeroportos (mensagens METAR e TAF).

As estações disponíveis são os pontos amarelos e vermelhos sobre o mapa.

Mova o rato sobre o mapa para ver o nome da estação.

Depois clique no ponto para visualizar as observações e previsões meteorológicas.

Para alterar o mapa : clique nos botões verdes com uma cruz preta para aumentar o zoom; no botão verde com uma pitada de zoom; ou nas setas verdes para mapas adjacentes.


METAR-TAF: